This is the latest recevied weather packets stored in our database for station/object DL9GJ-6. If no packets are shown the sender has not sent any weather packets the latest 10 day(s).
| Time | Temp. | Humidity | Pressure | Rain* | Wind** | Luminosity | Snow |
|---|---|---|---|---|---|---|---|
| 1778160018 | 13.33° C | 76% | 1014.2 hPa | 0 mm | - | 355 W/m² | - |
| 1778160011 | 13.33° C | 76% | 1014.2 hPa | 0 mm | - | 355 W/m² | - |
| 1778159658 | 13.33° C | 80% | 1014.1 hPa | 0 mm | - | 463 W/m² | - |
| 1778159298 | 13.33° C | 82% | 1014.1 hPa | 0 mm | - | 484 W/m² | - |
| 1778158938 | 12.78° C | 81% | 1014.1 hPa | 0 mm | - | 331 W/m² | - |
| 1778158580 | 12.78° C | 82% | 1014.1 hPa | 0 mm | - | 312 W/m² | - |
| 1778158219 | 12.78° C | 84% | 1014 hPa | 0 mm | - | 407 W/m² | - |
| 1778157860 | 12.22° C | 85% | 1014.1 hPa | 0 mm | - | 351 W/m² | - |
| 1778157500 | 12.22° C | 86% | 1014 hPa | 0 mm | - | 380 W/m² | - |
| 1778157139 | 12.22° C | 86% | 1014 hPa | 0 mm | - | 295 W/m² | - |
| 1778157126 | 12.22° C | 86% | 1014 hPa | 0 mm | - | 295 W/m² | - |
| 1778156779 | 12.22° C | 87% | 1014 hPa | 0 mm | - | 256 W/m² | - |
| 1778156420 | 12.78° C | 85% | 1014 hPa | 0 mm | - | 285 W/m² | - |
| 1778156059 | 12.78° C | 85% | 1013.9 hPa | 0.25 mm | - | 295 W/m² | - |
| 1778155700 | 12.78° C | 85% | 1014 hPa | 0.25 mm | - | 325 W/m² | - |
| 1778155340 | 12.78° C | 85% | 1014 hPa | 0.25 mm | - | 316 W/m² | - |
| 1778154979 | 12.22° C | 87% | 1014 hPa | 0.25 mm | - | 343 W/m² | - |
| 1778154619 | 12.22° C | 87% | 1014.1 hPa | 0.25 mm | - | 365 W/m² | - |
| 1778154258 | 11.67° C | 87% | 1014.1 hPa | 0.25 mm | - | 271 W/m² | - |
| 1778153898 | 11.67° C | 88% | 1014 hPa | 0.25 mm | - | 337 W/m² | - |
| 1778153538 | 11.67° C | 89% | 1014 hPa | 0.25 mm | - | 333 W/m² | - |
| 1778153529 | 11.67° C | 89% | 1014 hPa | 0.25 mm | - | 333 W/m² | - |
| 1778153179 | 11.67° C | 88% | 1014 hPa | 0.25 mm | - | 261 W/m² | - |
| 1778152820 | 11.67° C | 88% | 1014 hPa | 0.25 mm | - | 213 W/m² | - |
| 1778152459 | 11.67° C | 89% | 1014 hPa | 0 mm | - | 219 W/m² | - |
* Rain latest hour (hover to see other rain measurements)
** Current wind speed in m/s (hover to see current wind gust speed)